sensor_id;sensor_type;location;lat;lon;timestamp;P1;durP1;ratioP1;P2;durP2;ratioP2
64282;SDS011;50497;50.720;-2.084;2022-12-11T00:00:33;26.88;;;12.25;;
64282;SDS011;50497;50.720;-2.084;2022-12-11T00:03:02;26.13;;;11.52;;
64282;SDS011;50497;50.720;-2.084;2022-12-11T00:05:28;27.15;;;12.20;;
64282;SDS011;50497;50.720;-2.084;2022-12-11T00:07:53;27.63;;;12.75;;
64282;SDS011;50497;50.720;-2.084;2022-12-11T00:10:19;30.45;;;12.65;;
64282;SDS011;50497;50.720;-2.084;2022-12-11T00:12:44;34.75;;;13.82;;
64282;SDS011;50497;50.720;-2.084;2022-12-11T00:15:09;31.92;;;14.75;;
64282;SDS011;50497;50.720;-2.084;2022-12-11T00:17:35;31.75;;;13.90;;
64282;SDS011;50497;50.720;-2.084;2022-12-11T00:20:01;29.65;;;13.38;;
64282;SDS011;50497;50.720;-2.084;2022-12-11T00:22:28;30.27;;;13.48;;
64282;SDS011;50497;50.720;-2.084;2022-12-11T00:24:54;33.20;;;14.85;;
64282;SDS011;50497;50.720;-2.084;2022-12-11T00:27:19;30.27;;;14.15;;
64282;SDS011;50497;50.720;-2.084;2022-12-11T00:29:44;33.22;;;15.00;;
64282;SDS011;50497;50.720;-2.084;2022-12-11T00:32:10;32.97;;;14.10;;
64282;SDS011;50497;50.720;-2.084;2022-12-11T00:34:35;32.42;;;14.45;;
64282;SDS011;50497;50.720;-2.084;2022-12-11T00:37:01;30.65;;;13.20;;
64282;SDS011;50497;50.720;-2.084;2022-12-11T00:39:26;30.73;;;13.27;;
64282;SDS011;50497;50.720;-2.084;2022-12-11T00:41:52;27.00;;;13.45;;
64282;SDS011;50497;50.720;-2.084;2022-12-11T00:44:17;28.83;;;13.65;;
64282;SDS011;50497;50.720;-2.084;2022-12-11T00:46:42;30.25;;;14.77;;
64282;SDS011;50497;50.720;-2.084;2022-12-11T00:49:08;33.78;;;14.90;;
64282;SDS011;50497;50.720;-2.084;2022-12-11T00:51:33;29.35;;;14.02;;
64282;SDS011;50497;50.720;-2.084;2022-12-11T00:53:59;39.63;;;17.08;;
64282;SDS011;50497;50.720;-2.084;2022-12-11T00:56:24;43.38;;;19.17;;
64282;SDS011;50497;50.720;-2.084;2022-12-11T00:58:52;36.38;;;16.05;;
64282;SDS011;50497;50.720;-2.084;2022-12-11T01:01:19;30.30;;;13.52;;
64282;SDS011;50497;50.720;-2.084;2022-12-11T01:03:46;26.98;;;11.90;;
64282;SDS011;50497;50.720;-2.084;2022-12-11T01:06:14;23.50;;;11.07;;
64282;SDS011;50497;50.720;-2.084;2022-12-11T01:08:43;26.45;;;11.38;;
64282;SDS011;50497;50.720;-2.084;2022-12-11T01:11:10;24.00;;;12.18;;
64282;SDS011;50497;50.720;-2.084;2022-12-11T01:13:37;25.00;;;12.20;;
64282;SDS011;50497;50.720;-2.084;2022-12-11T01:16:10;26.13;;;11.65;;
64282;SDS011;50497;50.720;-2.084;2022-12-11T01:18:40;26.27;;;12.20;;
64282;SDS011;50497;50.720;-2.084;2022-12-11T01:21:09;25.17;;;12.38;;
64282;SDS011;50497;50.720;-2.084;2022-12-11T01:23:36;27.02;;;11.60;;
64282;SDS011;50497;50.720;-2.084;2022-12-11T01:26:12;24.95;;;11.30;;
64282;SDS011;50497;50.720;-2.084;2022-12-11T01:28:39;24.20;;;11.27;;
64282;SDS011;50497;50.720;-2.084;2022-12-11T01:31:06;23.98;;;11.50;;
64282;SDS011;50497;50.720;-2.084;2022-12-11T01:33:42;23.05;;;10.70;;
64282;SDS011;50497;50.720;-2.084;2022-12-11T01:36:18;23.98;;;11.27;;
64282;SDS011;50497;50.720;-2.084;2022-12-11T01:38:45;27.67;;;12.65;;
64282;SDS011;50497;50.720;-2.084;2022-12-11T01:41:12;25.45;;;11.80;;
64282;SDS011;50497;50.720;-2.084;2022-12-11T01:43:57;27.98;;;12.55;;
64282;SDS011;50497;50.720;-2.084;2022-12-11T01:46:24;27.45;;;12.27;;
64282;SDS011;50497;50.720;-2.084;2022-12-11T01:48:51;25.83;;;11.88;;
64282;SDS011;50497;50.720;-2.084;2022-12-11T01:51:17;29.15;;;13.27;;
64282;SDS011;50497;50.720;-2.084;2022-12-11T01:53:44;30.13;;;13.35;;
64282;SDS011;50497;50.720;-2.084;2022-12-11T01:56:14;28.70;;;13.15;;
64282;SDS011;50497;50.720;-2.084;2022-12-11T01:58:45;30.33;;;13.40;;
64282;SDS011;50497;50.720;-2.084;2022-12-11T02:01:25;25.92;;;11.73;;
64282;SDS011;50497;50.720;-2.084;2022-12-11T02:03:58;29.80;;;13.35;;
64282;SDS011;50497;50.720;-2.084;2022-12-11T02:09:05;28.42;;;13.85;;
64282;SDS011;50497;50.720;-2.084;2022-12-11T02:15:02;29.17;;;13.10;;
64282;SDS011;50497;50.720;-2.084;2022-12-11T02:20:30;27.02;;;11.65;;
64282;SDS011;50497;50.720;-2.084;2022-12-11T02:31:08;25.38;;;11.40;;
64282;SDS011;50497;50.720;-2.084;2022-12-11T02:36:48;27.83;;;11.85;;
64282;SDS011;50497;50.720;-2.084;2022-12-11T02:39:18;28.92;;;12.30;;
64282;SDS011;50497;50.720;-2.084;2022-12-11T02:41:47;28.23;;;12.73;;
64282;SDS011;50497;50.720;-2.084;2022-12-11T02:44:15;29.75;;;13.52;;
64282;SDS011;50497;50.720;-2.084;2022-12-11T02:46:45;29.25;;;13.23;;
64282;SDS011;50497;50.720;-2.084;2022-12-11T02:49:11;28.48;;;13.52;;
64282;SDS011;50497;50.720;-2.084;2022-12-11T02:51:41;27.30;;;12.40;;
64282;SDS011;50497;50.720;-2.084;2022-12-11T02:54:13;23.50;;;11.23;;
64282;SDS011;50497;50.720;-2.084;2022-12-11T02:56:52;26.88;;;11.05;;
64282;SDS011;50497;50.720;-2.084;2022-12-11T02:59:28;27.08;;;11.70;;
64282;SDS011;50497;50.720;-2.084;2022-12-11T03:01:59;24.67;;;11.18;;
64282;SDS011;50497;50.720;-2.084;2022-12-11T03:04:24;23.25;;;11.68;;
64282;SDS011;50497;50.720;-2.084;2022-12-11T03:06:51;23.25;;;10.65;;
64282;SDS011;50497;50.720;-2.084;2022-12-11T03:09:20;25.02;;;11.30;;
64282;SDS011;50497;50.720;-2.084;2022-12-11T03:11:45;25.00;;;11.10;;
64282;SDS011;50497;50.720;-2.084;2022-12-11T03:14:11;26.30;;;10.85;;
64282;SDS011;50497;50.720;-2.084;2022-12-11T03:16:38;24.92;;;11.68;;
64282;SDS011;50497;50.720;-2.084;2022-12-11T03:24:50;27.63;;;11.95;;
64282;SDS011;50497;50.720;-2.084;2022-12-11T03:30:01;36.30;;;12.50;;
64282;SDS011;50497;50.720;-2.084;2022-12-11T03:32:35;33.30;;;12.90;;
64282;SDS011;50497;50.720;-2.084;2022-12-11T03:35:09;28.60;;;11.60;;
64282;SDS011;50497;50.720;-2.084;2022-12-11T03:37:38;29.95;;;12.30;;
64282;SDS011;50497;50.720;-2.084;2022-12-11T03:40:09;29.50;;;12.40;;
64282;SDS011;50497;50.720;-2.084;2022-12-11T03:42:37;31.48;;;11.82;;
64282;SDS011;50497;50.720;-2.084;2022-12-11T03:45:09;28.38;;;12.02;;
64282;SDS011;50497;50.720;-2.084;2022-12-11T03:47:37;25.05;;;11.00;;
64282;SDS011;50497;50.720;-2.084;2022-12-11T03:50:09;27.77;;;10.52;;
64282;SDS011;50497;50.720;-2.084;2022-12-11T03:52:36;22.52;;;10.15;;
64282;SDS011;50497;50.720;-2.084;2022-12-11T03:55:13;23.23;;;9.95;;
64282;SDS011;50497;50.720;-2.084;2022-12-11T03:57:42;24.63;;;10.73;;
64282;SDS011;50497;50.720;-2.084;2022-12-11T04:00:13;25.30;;;10.20;;
64282;SDS011;50497;50.720;-2.084;2022-12-11T04:02:41;22.33;;;10.15;;
64282;SDS011;50497;50.720;-2.084;2022-12-11T04:05:07;24.35;;;10.45;;
64282;SDS011;50497;50.720;-2.084;2022-12-11T04:07:34;25.45;;;11.45;;
64282;SDS011;50497;50.720;-2.084;2022-12-11T04:10:00;27.35;;;11.18;;
64282;SDS011;50497;50.720;-2.084;2022-12-11T04:12:25;28.08;;;11.45;;
64282;SDS011;50497;50.720;-2.084;2022-12-11T04:14:51;26.58;;;11.32;;
64282;SDS011;50497;50.720;-2.084;2022-12-11T04:17:33;27.08;;;10.98;;
64282;SDS011;50497;50.720;-2.084;2022-12-11T04:20:18;36.03;;;11.35;;
64282;SDS011;50497;50.720;-2.084;2022-12-11T04:23:04;46.03;;;12.55;;
64282;SDS011;50497;50.720;-2.084;2022-12-11T04:25:49;41.40;;;12.75;;
64282;SDS011;50497;50.720;-2.084;2022-12-11T04:28:14;42.97;;;13.68;;
64282;SDS011;50497;50.720;-2.084;2022-12-11T04:30:40;58.83;;;13.65;;
64282;SDS011;50497;50.720;-2.084;2022-12-11T04:33:12;56.33;;;13.55;;
64282;SDS011;50497;50.720;-2.084;2022-12-11T04:35:38;74.07;;;15.88;;
64282;SDS011;50497;50.720;-2.084;2022-12-11T04:38:03;89.13;;;15.88;;
64282;SDS011;50497;50.720;-2.084;2022-12-11T04:40:29;97.22;;;17.02;;
64282;SDS011;50497;50.720;-2.084;2022-12-11T04:42:54;54.42;;;14.38;;
64282;SDS011;50497;50.720;-2.084;2022-12-11T04:45:19;68.63;;;15.57;;
64282;SDS011;50497;50.720;-2.084;2022-12-11T04:47:45;49.42;;;14.27;;
64282;SDS011;50497;50.720;-2.084;2022-12-11T04:50:11;40.50;;;14.10;;
64282;SDS011;50497;50.720;-2.084;2022-12-11T04:52:38;36.80;;;12.55;;
64282;SDS011;50497;50.720;-2.084;2022-12-11T04:55:05;32.10;;;11.90;;
64282;SDS011;50497;50.720;-2.084;2022-12-11T04:57:31;35.80;;;11.13;;
64282;SDS011;50497;50.720;-2.084;2022-12-11T04:59:57;38.00;;;10.13;;
64282;SDS011;50497;50.720;-2.084;2022-12-11T05:02:23;40.63;;;11.20;;
64282;SDS011;50497;50.720;-2.084;2022-12-11T05:04:50;33.30;;;10.30;;
64282;SDS011;50497;50.720;-2.084;2022-12-11T05:07:16;37.15;;;11.02;;
64282;SDS011;50497;50.720;-2.084;2022-12-11T05:09:41;33.55;;;10.40;;
64282;SDS011;50497;50.720;-2.084;2022-12-11T05:12:06;37.15;;;11.85;;
64282;SDS011;50497;50.720;-2.084;2022-12-11T05:14:32;36.45;;;11.70;;
64282;SDS011;50497;50.720;-2.084;2022-12-11T05:16:58;32.85;;;10.90;;
64282;SDS011;50497;50.720;-2.084;2022-12-11T05:19:23;30.90;;;10.95;;
64282;SDS011;50497;50.720;-2.084;2022-12-11T05:21:50;34.08;;;11.27;;
64282;SDS011;50497;50.720;-2.084;2022-12-11T05:24:15;39.28;;;11.00;;
64282;SDS011;50497;50.720;-2.084;2022-12-11T05:26:40;30.27;;;10.32;;
64282;SDS011;50497;50.720;-2.084;2022-12-11T05:29:06;30.88;;;10.82;;
64282;SDS011;50497;50.720;-2.084;2022-12-11T05:31:32;29.45;;;10.57;;
64282;SDS011;50497;50.720;-2.084;2022-12-11T05:33:57;28.98;;;10.32;;
64282;SDS011;50497;50.720;-2.084;2022-12-11T05:36:28;28.23;;;9.93;;
64282;SDS011;50497;50.720;-2.084;2022-12-11T05:38:59;21.88;;;8.70;;
64282;SDS011;50497;50.720;-2.084;2022-12-11T05:41:26;28.30;;;10.10;;
64282;SDS011;50497;50.720;-2.084;2022-12-11T05:43:53;32.47;;;10.23;;
64282;SDS011;50497;50.720;-2.084;2022-12-11T05:46:20;33.15;;;9.93;;
64282;SDS011;50497;50.720;-2.084;2022-12-11T05:48:48;26.48;;;9.00;;
64282;SDS011;50497;50.720;-2.084;2022-12-11T05:51:15;30.02;;;9.05;;
64282;SDS011;50497;50.720;-2.084;2022-12-11T05:53:41;22.25;;;8.75;;
64282;SDS011;50497;50.720;-2.084;2022-12-11T05:56:10;31.10;;;8.80;;
64282;SDS011;50497;50.720;-2.084;2022-12-11T05:58:36;28.40;;;8.73;;
64282;SDS011;50497;50.720;-2.084;2022-12-11T06:01:10;55.38;;;11.55;;
64282;SDS011;50497;50.720;-2.084;2022-12-11T06:03:38;47.70;;;11.52;;
64282;SDS011;50497;50.720;-2.084;2022-12-11T06:06:04;35.20;;;10.57;;
64282;SDS011;50497;50.720;-2.084;2022-12-11T06:08:30;34.85;;;10.13;;
64282;SDS011;50497;50.720;-2.084;2022-12-11T06:10:56;30.20;;;9.95;;
64282;SDS011;50497;50.720;-2.084;2022-12-11T06:13:22;31.40;;;10.38;;
64282;SDS011;50497;50.720;-2.084;2022-12-11T06:15:47;32.28;;;9.90;;
64282;SDS011;50497;50.720;-2.084;2022-12-11T06:18:13;32.78;;;10.30;;
64282;SDS011;50497;50.720;-2.084;2022-12-11T06:20:38;41.00;;;10.10;;
64282;SDS011;50497;50.720;-2.084;2022-12-11T06:23:04;34.83;;;9.77;;
64282;SDS011;50497;50.720;-2.084;2022-12-11T06:25:33;32.00;;;10.13;;
64282;SDS011;50497;50.720;-2.084;2022-12-11T06:27:58;29.75;;;8.52;;
64282;SDS011;50497;50.720;-2.084;2022-12-11T06:30:28;32.38;;;9.85;;
64282;SDS011;50497;50.720;-2.084;2022-12-11T06:32:54;34.15;;;10.10;;
64282;SDS011;50497;50.720;-2.084;2022-12-11T06:35:20;33.90;;;9.80;;
64282;SDS011;50497;50.720;-2.084;2022-12-11T06:37:45;49.10;;;10.15;;
64282;SDS011;50497;50.720;-2.084;2022-12-11T06:40:11;37.45;;;10.35;;
64282;SDS011;50497;50.720;-2.084;2022-12-11T06:42:37;29.88;;;9.77;;
64282;SDS011;50497;50.720;-2.084;2022-12-11T06:45:03;38.22;;;10.93;;
64282;SDS011;50497;50.720;-2.084;2022-12-11T06:47:28;31.83;;;9.27;;
64282;SDS011;50497;50.720;-2.084;2022-12-11T06:49:54;44.92;;;13.63;;
64282;SDS011;50497;50.720;-2.084;2022-12-11T06:52:20;45.83;;;15.57;;
64282;SDS011;50497;50.720;-2.084;2022-12-11T06:54:46;41.60;;;14.52;;
64282;SDS011;50497;50.720;-2.084;2022-12-11T06:57:12;27.63;;;10.30;;
64282;SDS011;50497;50.720;-2.084;2022-12-11T06:59:37;29.77;;;9.95;;
64282;SDS011;50497;50.720;-2.084;2022-12-11T07:02:03;25.52;;;9.35;;
64282;SDS011;50497;50.720;-2.084;2022-12-11T07:04:29;26.50;;;9.23;;
64282;SDS011;50497;50.720;-2.084;2022-12-11T07:06:54;21.33;;;8.57;;
64282;SDS011;50497;50.720;-2.084;2022-12-11T07:09:20;23.38;;;8.43;;
64282;SDS011;50497;50.720;-2.084;2022-12-11T07:11:50;22.55;;;7.93;;
64282;SDS011;50497;50.720;-2.084;2022-12-11T07:14:16;22.92;;;7.82;;
64282;SDS011;50497;50.720;-2.084;2022-12-11T07:16:45;23.67;;;8.75;;
64282;SDS011;50497;50.720;-2.084;2022-12-11T07:19:14;24.35;;;8.52;;
64282;SDS011;50497;50.720;-2.084;2022-12-11T07:21:40;21.25;;;8.95;;
64282;SDS011;50497;50.720;-2.084;2022-12-11T07:24:05;21.25;;;7.80;;
64282;SDS011;50497;50.720;-2.084;2022-12-11T07:26:32;18.73;;;8.10;;
64282;SDS011;50497;50.720;-2.084;2022-12-11T07:28:57;21.35;;;8.13;;
64282;SDS011;50497;50.720;-2.084;2022-12-11T07:31:24;22.35;;;8.00;;
64282;SDS011;50497;50.720;-2.084;2022-12-11T07:33:52;27.23;;;9.63;;
64282;SDS011;50497;50.720;-2.084;2022-12-11T07:38:44;29.85;;;11.07;;
64282;SDS011;50497;50.720;-2.084;2022-12-11T07:41:11;24.88;;;9.45;;
64282;SDS011;50497;50.720;-2.084;2022-12-11T07:43:38;25.15;;;9.40;;
64282;SDS011;50497;50.720;-2.084;2022-12-11T07:46:05;28.20;;;10.20;;
64282;SDS011;50497;50.720;-2.084;2022-12-11T07:48:35;26.98;;;9.38;;
64282;SDS011;50497;50.720;-2.084;2022-12-11T07:51:16;23.83;;;8.60;;
64282;SDS011;50497;50.720;-2.084;2022-12-11T07:53:50;25.27;;;7.68;;
64282;SDS011;50497;50.720;-2.084;2022-12-11T07:56:16;24.40;;;7.90;;
64282;SDS011;50497;50.720;-2.084;2022-12-11T07:58:43;23.08;;;7.90;;
64282;SDS011;50497;50.720;-2.084;2022-12-11T08:01:18;20.70;;;9.02;;
64282;SDS011;50497;50.720;-2.084;2022-12-11T08:03:45;64.97;;;27.25;;
64282;SDS011;50497;50.720;-2.084;2022-12-11T08:06:11;26.92;;;10.00;;
64282;SDS011;50497;50.720;-2.084;2022-12-11T08:08:38;22.60;;;8.10;;
64282;SDS011;50497;50.720;-2.084;2022-12-11T08:11:06;28.27;;;10.40;;
64282;SDS011;50497;50.720;-2.084;2022-12-11T08:13:33;34.65;;;13.68;;
64282;SDS011;50497;50.720;-2.084;2022-12-11T08:16:02;23.40;;;9.85;;
64282;SDS011;50497;50.720;-2.084;2022-12-11T08:18:32;29.52;;;11.25;;
64282;SDS011;50497;50.720;-2.084;2022-12-11T08:20:58;22.70;;;8.68;;
64282;SDS011;50497;50.720;-2.084;2022-12-11T08:23:23;23.77;;;8.50;;
64282;SDS011;50497;50.720;-2.084;2022-12-11T08:25:49;26.05;;;8.88;;
64282;SDS011;50497;50.720;-2.084;2022-12-11T08:28:14;25.85;;;8.68;;
64282;SDS011;50497;50.720;-2.084;2022-12-11T08:30:39;27.40;;;8.30;;
64282;SDS011;50497;50.720;-2.084;2022-12-11T08:33:05;27.45;;;9.57;;
64282;SDS011;50497;50.720;-2.084;2022-12-11T08:35:31;28.67;;;10.80;;
64282;SDS011;50497;50.720;-2.084;2022-12-11T08:37:57;26.35;;;9.32;;
64282;SDS011;50497;50.720;-2.084;2022-12-11T08:40:22;24.20;;;8.68;;
64282;SDS011;50497;50.720;-2.084;2022-12-11T08:42:48;20.27;;;7.75;;
64282;SDS011;50497;50.720;-2.084;2022-12-11T08:45:14;21.45;;;7.35;;
64282;SDS011;50497;50.720;-2.084;2022-12-11T08:47:39;21.42;;;7.57;;
64282;SDS011;50497;50.720;-2.084;2022-12-11T08:50:05;25.73;;;9.18;;
64282;SDS011;50497;50.720;-2.084;2022-12-11T08:52:32;22.63;;;8.20;;
64282;SDS011;50497;50.720;-2.084;2022-12-11T08:54:58;22.70;;;8.00;;
64282;SDS011;50497;50.720;-2.084;2022-12-11T08:57:24;34.85;;;8.90;;
64282;SDS011;50497;50.720;-2.084;2022-12-11T08:59:49;20.00;;;6.95;;
64282;SDS011;50497;50.720;-2.084;2022-12-11T09:02:15;24.75;;;8.88;;
64282;SDS011;50497;50.720;-2.084;2022-12-11T09:04:40;27.98;;;10.15;;
64282;SDS011;50497;50.720;-2.084;2022-12-11T09:07:06;38.92;;;13.48;;
64282;SDS011;50497;50.720;-2.084;2022-12-11T09:09:31;27.35;;;9.43;;
64282;SDS011;50497;50.720;-2.084;2022-12-11T09:11:57;28.55;;;9.75;;
64282;SDS011;50497;50.720;-2.084;2022-12-11T09:14:23;27.65;;;10.05;;
64282;SDS011;50497;50.720;-2.084;2022-12-11T09:16:48;77.22;;;36.13;;
64282;SDS011;50497;50.720;-2.084;2022-12-11T09:19:14;68.90;;;31.88;;
64282;SDS011;50497;50.720;-2.084;2022-12-11T09:21:40;30.25;;;10.73;;
64282;SDS011;50497;50.720;-2.084;2022-12-11T09:24:08;30.20;;;10.85;;
64282;SDS011;50497;50.720;-2.084;2022-12-11T09:26:34;36.00;;;13.02;;
64282;SDS011;50497;50.720;-2.084;2022-12-11T09:29:01;41.70;;;13.02;;
64282;SDS011;50497;50.720;-2.084;2022-12-11T09:31:29;31.60;;;11.50;;
64282;SDS011;50497;50.720;-2.084;2022-12-11T09:34:00;32.20;;;10.73;;
64282;SDS011;50497;50.720;-2.084;2022-12-11T09:36:27;31.50;;;10.30;;
64282;SDS011;50497;50.720;-2.084;2022-12-11T09:38:53;27.38;;;9.20;;
64282;SDS011;50497;50.720;-2.084;2022-12-11T09:43:45;32.22;;;12.60;;
64282;SDS011;50497;50.720;-2.084;2022-12-11T09:46:16;29.02;;;11.20;;
64282;SDS011;50497;50.720;-2.084;2022-12-11T09:48:43;31.13;;;11.80;;
64282;SDS011;50497;50.720;-2.084;2022-12-11T09:51:22;34.13;;;10.25;;
64282;SDS011;50497;50.720;-2.084;2022-12-11T09:53:52;29.88;;;9.98;;
64282;SDS011;50497;50.720;-2.084;2022-12-11T09:56:21;27.85;;;9.20;;
64282;SDS011;50497;50.720;-2.084;2022-12-11T10:01:49;33.88;;;10.70;;
64282;SDS011;50497;50.720;-2.084;2022-12-11T10:04:27;33.60;;;10.98;;
64282;SDS011;50497;50.720;-2.084;2022-12-11T10:15:02;33.13;;;11.85;;
64282;SDS011;50497;50.720;-2.084;2022-12-11T10:17:38;29.90;;;10.40;;
64282;SDS011;50497;50.720;-2.084;2022-12-11T10:22:45;28.10;;;10.13;;
64282;SDS011;50497;50.720;-2.084;2022-12-11T10:25:18;32.60;;;11.73;;
64282;SDS011;50497;50.720;-2.084;2022-12-11T10:27:46;39.80;;;12.55;;
64282;SDS011;50497;50.720;-2.084;2022-12-11T10:35:44;37.08;;;13.75;;
64282;SDS011;50497;50.720;-2.084;2022-12-11T10:38:31;39.13;;;13.80;;
64282;SDS011;50497;50.720;-2.084;2022-12-11T10:41:08;37.72;;;14.65;;
64282;SDS011;50497;50.720;-2.084;2022-12-11T10:43:43;36.10;;;12.65;;
64282;SDS011;50497;50.720;-2.084;2022-12-11T10:48:55;38.58;;;14.27;;
64282;SDS011;50497;50.720;-2.084;2022-12-11T10:56:53;38.67;;;15.40;;
64282;SDS011;50497;50.720;-2.084;2022-12-11T10:59:25;43.17;;;16.13;;
64282;SDS011;50497;50.720;-2.084;2022-12-11T11:01:57;39.60;;;15.30;;
64282;SDS011;50497;50.720;-2.084;2022-12-11T11:04:36;45.90;;;18.10;;
64282;SDS011;50497;50.720;-2.084;2022-12-11T11:09:40;40.42;;;15.82;;
64282;SDS011;50497;50.720;-2.084;2022-12-11T11:12:22;38.72;;;15.35;;
64282;SDS011;50497;50.720;-2.084;2022-12-11T11:15:05;45.72;;;17.27;;
64282;SDS011;50497;50.720;-2.084;2022-12-11T11:17:45;40.85;;;15.23;;
64282;SDS011;50497;50.720;-2.084;2022-12-11T11:20:18;45.50;;;16.50;;
64282;SDS011;50497;50.720;-2.084;2022-12-11T11:22:49;45.58;;;17.75;;
64282;SDS011;50497;50.720;-2.084;2022-12-11T11:25:22;49.55;;;20.70;;
64282;SDS011;50497;50.720;-2.084;2022-12-11T11:27:54;51.70;;;23.33;;
64282;SDS011;50497;50.720;-2.084;2022-12-11T11:30:33;50.63;;;21.73;;
64282;SDS011;50497;50.720;-2.084;2022-12-11T11:33:02;76.85;;;29.30;;
64282;SDS011;50497;50.720;-2.084;2022-12-11T11:35:31;52.72;;;21.30;;
64282;SDS011;50497;50.720;-2.084;2022-12-11T11:38:08;52.15;;;20.05;;
64282;SDS011;50497;50.720;-2.084;2022-12-11T11:40:54;49.80;;;18.35;;
64282;SDS011;50497;50.720;-2.084;2022-12-11T11:43:44;46.05;;;16.58;;
64282;SDS011;50497;50.720;-2.084;2022-12-11T11:46:57;41.40;;;15.98;;
64282;SDS011;50497;50.720;-2.084;2022-12-11T11:57:53;37.17;;;14.90;;
64282;SDS011;50497;50.720;-2.084;2022-12-11T12:02:50;34.50;;;12.65;;
64282;SDS011;50497;50.720;-2.084;2022-12-11T12:05:28;27.50;;;11.02;;
64282;SDS011;50497;50.720;-2.084;2022-12-11T12:08:09;26.20;;;11.02;;
64282;SDS011;50497;50.720;-2.084;2022-12-11T12:16:03;32.95;;;12.38;;
64282;SDS011;50497;50.720;-2.084;2022-12-11T12:27:23;29.02;;;11.15;;
64282;SDS011;50497;50.720;-2.084;2022-12-11T12:30:00;32.25;;;12.60;;
64282;SDS011;50497;50.720;-2.084;2022-12-11T12:32:55;28.17;;;11.60;;
64282;SDS011;50497;50.720;-2.084;2022-12-11T12:38:41;31.00;;;12.93;;
64282;SDS011;50497;50.720;-2.084;2022-12-11T12:41:17;40.13;;;15.80;;
64282;SDS011;50497;50.720;-2.084;2022-12-11T12:43:58;34.25;;;15.02;;
64282;SDS011;50497;50.720;-2.084;2022-12-11T12:49:24;40.15;;;17.50;;
64282;SDS011;50497;50.720;-2.084;2022-12-11T12:52:03;41.80;;;16.92;;
64282;SDS011;50497;50.720;-2.084;2022-12-11T12:54:36;37.58;;;15.93;;
64282;SDS011;50497;50.720;-2.084;2022-12-11T12:57:06;39.70;;;17.50;;
64282;SDS011;50497;50.720;-2.084;2022-12-11T12:59:36;37.90;;;16.67;;
64282;SDS011;50497;50.720;-2.084;2022-12-11T13:02:02;43.53;;;18.80;;
64282;SDS011;50497;50.720;-2.084;2022-12-11T13:07:09;39.22;;;17.73;;
64282;SDS011;50497;50.720;-2.084;2022-12-11T13:09:41;35.08;;;15.30;;
64282;SDS011;50497;50.720;-2.084;2022-12-11T13:12:12;33.85;;;14.93;;
64282;SDS011;50497;50.720;-2.084;2022-12-11T13:14:55;33.92;;;13.60;;
64282;SDS011;50497;50.720;-2.084;2022-12-11T13:19:50;30.23;;;12.35;;
64282;SDS011;50497;50.720;-2.084;2022-12-11T13:22:30;31.83;;;14.38;;
64282;SDS011;50497;50.720;-2.084;2022-12-11T13:25:00;35.00;;;13.15;;
64282;SDS011;50497;50.720;-2.084;2022-12-11T13:27:40;33.38;;;14.05;;
64282;SDS011;50497;50.720;-2.084;2022-12-11T13:32:42;32.60;;;13.80;;
64282;SDS011;50497;50.720;-2.084;2022-12-11T13:35:17;32.90;;;14.02;;
64282;SDS011;50497;50.720;-2.084;2022-12-11T13:37:48;34.67;;;13.63;;
64282;SDS011;50497;50.720;-2.084;2022-12-11T13:40:27;38.90;;;15.88;;
64282;SDS011;50497;50.720;-2.084;2022-12-11T13:43:08;41.30;;;17.35;;
64282;SDS011;50497;50.720;-2.084;2022-12-11T13:45:43;55.17;;;22.88;;
64282;SDS011;50497;50.720;-2.084;2022-12-11T13:48:32;50.00;;;20.63;;
64282;SDS011;50497;50.720;-2.084;2022-12-11T13:51:02;49.40;;;21.80;;
64282;SDS011;50497;50.720;-2.084;2022-12-11T13:53:28;46.15;;;20.35;;
64282;SDS011;50497;50.720;-2.084;2022-12-11T13:56:02;46.15;;;20.55;;
64282;SDS011;50497;50.720;-2.084;2022-12-11T13:58:36;42.08;;;17.50;;
64282;SDS011;50497;50.720;-2.084;2022-12-11T14:03:54;37.10;;;14.75;;
64282;SDS011;50497;50.720;-2.084;2022-12-11T14:06:23;41.83;;;15.27;;
64282;SDS011;50497;50.720;-2.084;2022-12-11T14:08:52;35.33;;;14.95;;
64282;SDS011;50497;50.720;-2.084;2022-12-11T14:11:28;35.47;;;15.45;;
64282;SDS011;50497;50.720;-2.084;2022-12-11T14:13:58;34.47;;;14.93;;
64282;SDS011;50497;50.720;-2.084;2022-12-11T14:16:25;37.45;;;15.80;;
64282;SDS011;50497;50.720;-2.084;2022-12-11T14:18:52;36.78;;;15.68;;
64282;SDS011;50497;50.720;-2.084;2022-12-11T14:21:22;36.72;;;14.65;;
64282;SDS011;50497;50.720;-2.084;2022-12-11T14:23:56;36.38;;;14.73;;
64282;SDS011;50497;50.720;-2.084;2022-12-11T14:26:25;32.42;;;14.73;;
64282;SDS011;50497;50.720;-2.084;2022-12-11T14:28:54;38.80;;;15.25;;
64282;SDS011;50497;50.720;-2.084;2022-12-11T14:31:23;34.08;;;13.70;;
64282;SDS011;50497;50.720;-2.084;2022-12-11T14:34:18;36.28;;;14.93;;
64282;SDS011;50497;50.720;-2.084;2022-12-11T14:36:49;34.90;;;14.13;;
64282;SDS011;50497;50.720;-2.084;2022-12-11T14:42:13;39.58;;;15.18;;
64282;SDS011;50497;50.720;-2.084;2022-12-11T14:44:47;32.92;;;13.52;;
64282;SDS011;50497;50.720;-2.084;2022-12-11T14:47:15;31.25;;;13.65;;
64282;SDS011;50497;50.720;-2.084;2022-12-11T14:50:01;39.88;;;14.82;;
64282;SDS011;50497;50.720;-2.084;2022-12-11T14:52:42;34.08;;;13.90;;
64282;SDS011;50497;50.720;-2.084;2022-12-11T14:55:26;32.78;;;13.52;;
64282;SDS011;50497;50.720;-2.084;2022-12-11T14:57:55;31.17;;;13.02;;
64282;SDS011;50497;50.720;-2.084;2022-12-11T15:00:25;35.78;;;14.13;;
64282;SDS011;50497;50.720;-2.084;2022-12-11T15:02:59;38.33;;;14.52;;
64282;SDS011;50497;50.720;-2.084;2022-12-11T15:05:55;34.88;;;12.82;;
64282;SDS011;50497;50.720;-2.084;2022-12-11T15:08:34;35.65;;;15.20;;
64282;SDS011;50497;50.720;-2.084;2022-12-11T15:11:02;33.60;;;15.20;;
64282;SDS011;50497;50.720;-2.084;2022-12-11T15:13:38;42.40;;;17.52;;
64282;SDS011;50497;50.720;-2.084;2022-12-11T15:16:14;41.28;;;16.27;;
64282;SDS011;50497;50.720;-2.084;2022-12-11T15:18:40;35.03;;;15.05;;
64282;SDS011;50497;50.720;-2.084;2022-12-11T15:21:08;38.92;;;15.18;;
64282;SDS011;50497;50.720;-2.084;2022-12-11T15:23:55;38.70;;;16.38;;
64282;SDS011;50497;50.720;-2.084;2022-12-11T15:29:02;35.58;;;14.15;;
64282;SDS011;50497;50.720;-2.084;2022-12-11T15:31:31;41.53;;;15.73;;
64282;SDS011;50497;50.720;-2.084;2022-12-11T15:33:59;39.03;;;14.15;;
64282;SDS011;50497;50.720;-2.084;2022-12-11T15:36:34;53.25;;;17.23;;
64282;SDS011;50497;50.720;-2.084;2022-12-11T15:39:01;39.78;;;14.80;;
64282;SDS011;50497;50.720;-2.084;2022-12-11T15:41:30;34.05;;;15.38;;
64282;SDS011;50497;50.720;-2.084;2022-12-11T15:43:59;40.10;;;16.50;;
64282;SDS011;50497;50.720;-2.084;2022-12-11T15:46:27;41.50;;;16.17;;
64282;SDS011;50497;50.720;-2.084;2022-12-11T15:48:52;54.95;;;22.92;;
64282;SDS011;50497;50.720;-2.084;2022-12-11T15:51:20;43.33;;;17.70;;
64282;SDS011;50497;50.720;-2.084;2022-12-11T15:53:47;52.33;;;22.10;;
64282;SDS011;50497;50.720;-2.084;2022-12-11T15:56:13;72.75;;;26.42;;
64282;SDS011;50497;50.720;-2.084;2022-12-11T15:58:40;62.50;;;21.90;;
64282;SDS011;50497;50.720;-2.084;2022-12-11T16:01:06;49.28;;;19.77;;
64282;SDS011;50497;50.720;-2.084;2022-12-11T16:03:32;57.33;;;20.48;;
64282;SDS011;50497;50.720;-2.084;2022-12-11T16:05:57;59.30;;;20.77;;
64282;SDS011;50497;50.720;-2.084;2022-12-11T16:08:23;66.93;;;23.33;;
64282;SDS011;50497;50.720;-2.084;2022-12-11T16:10:50;65.60;;;24.77;;
64282;SDS011;50497;50.720;-2.084;2022-12-11T16:13:18;63.92;;;25.92;;
64282;SDS011;50497;50.720;-2.084;2022-12-11T16:15:44;65.65;;;26.80;;